sensor_id;sensor_type;location;lat;lon;timestamp;temperature;humidity
17364;DHT22;8799;43.594;13.526;2023-03-12T00:01:29;19.00;99.90
17364;DHT22;8799;43.594;13.526;2023-03-12T00:03:58;19.00;99.90
17364;DHT22;8799;43.594;13.526;2023-03-12T00:06:26;19.00;99.90
17364;DHT22;8799;43.594;13.526;2023-03-12T00:08:57;19.00;99.90
17364;DHT22;8799;43.594;13.526;2023-03-12T00:11:27;19.00;99.90
17364;DHT22;8799;43.594;13.526;2023-03-12T00:13:56;19.00;99.90
17364;DHT22;8799;43.594;13.526;2023-03-12T00:16:25;19.00;99.90
17364;DHT22;8799;43.594;13.526;2023-03-12T00:18:54;19.00;99.90
17364;DHT22;8799;43.594;13.526;2023-03-12T00:21:22;19.00;99.90
17364;DHT22;8799;43.594;13.526;2023-03-12T00:23:51;19.00;99.90
17364;DHT22;8799;43.594;13.526;2023-03-12T00:26:21;19.00;99.90
17364;DHT22;8799;43.594;13.526;2023-03-12T00:28:50;19.00;99.90
17364;DHT22;8799;43.594;13.526;2023-03-12T00:31:20;19.00;99.90
17364;DHT22;8799;43.594;13.526;2023-03-12T00:33:49;19.00;99.90
17364;DHT22;8799;43.594;13.526;2023-03-12T00:36:18;19.00;99.90
17364;DHT22;8799;43.594;13.526;2023-03-12T00:38:46;19.00;99.90
17364;DHT22;8799;43.594;13.526;2023-03-12T00:41:14;19.00;99.90
17364;DHT22;8799;43.594;13.526;2023-03-12T00:43:45;19.00;99.90
17364;DHT22;8799;43.594;13.526;2023-03-12T00:46:13;19.00;99.90
17364;DHT22;8799;43.594;13.526;2023-03-12T00:48:41;19.00;99.90
17364;DHT22;8799;43.594;13.526;2023-03-12T00:51:11;19.00;99.90
17364;DHT22;8799;43.594;13.526;2023-03-12T00:53:38;19.00;99.90
17364;DHT22;8799;43.594;13.526;2023-03-12T00:56:06;19.00;99.90
17364;DHT22;8799;43.594;13.526;2023-03-12T00:58:34;19.00;99.90
17364;DHT22;8799;43.594;13.526;2023-03-12T01:01:04;19.00;99.90
17364;DHT22;8799;43.594;13.526;2023-03-12T01:03:32;19.00;99.90
17364;DHT22;8799;43.594;13.526;2023-03-12T01:06:00;19.00;99.90
17364;DHT22;8799;43.594;13.526;2023-03-12T01:08:28;19.00;99.90
17364;DHT22;8799;43.594;13.526;2023-03-12T01:10:57;19.00;99.90
17364;DHT22;8799;43.594;13.526;2023-03-12T01:13:25;19.10;99.90
17364;DHT22;8799;43.594;13.526;2023-03-12T01:15:53;19.10;99.90
17364;DHT22;8799;43.594;13.526;2023-03-12T01:18:23;19.10;99.90
17364;DHT22;8799;43.594;13.526;2023-03-12T01:20:50;19.10;99.90
17364;DHT22;8799;43.594;13.526;2023-03-12T01:23:19;19.10;99.90
17364;DHT22;8799;43.594;13.526;2023-03-12T01:25:52;19.10;99.90
17364;DHT22;8799;43.594;13.526;2023-03-12T01:28:20;19.10;99.90
17364;DHT22;8799;43.594;13.526;2023-03-12T01:30:48;19.00;99.90
17364;DHT22;8799;43.594;13.526;2023-03-12T01:33:16;19.10;99.90
17364;DHT22;8799;43.594;13.526;2023-03-12T01:35:45;19.10;99.90
17364;DHT22;8799;43.594;13.526;2023-03-12T01:38:14;19.10;99.90
17364;DHT22;8799;43.594;13.526;2023-03-12T01:40:43;19.10;99.90
17364;DHT22;8799;43.594;13.526;2023-03-12T01:43:24;19.10;99.90
17364;DHT22;8799;43.594;13.526;2023-03-12T01:46:01;19.10;99.90
17364;DHT22;8799;43.594;13.526;2023-03-12T01:48:33;19.10;99.90
17364;DHT22;8799;43.594;13.526;2023-03-12T01:51:05;19.10;99.90
17364;DHT22;8799;43.594;13.526;2023-03-12T01:53:35;19.10;99.90
17364;DHT22;8799;43.594;13.526;2023-03-12T01:56:04;19.10;99.90
17364;DHT22;8799;43.594;13.526;2023-03-12T01:58:33;19.10;99.90
17364;DHT22;8799;43.594;13.526;2023-03-12T02:01:02;19.00;99.90
17364;DHT22;8799;43.594;13.526;2023-03-12T02:03:31;19.00;99.90
17364;DHT22;8799;43.594;13.526;2023-03-12T02:06:05;19.00;99.90
17364;DHT22;8799;43.594;13.526;2023-03-12T02:08:36;19.10;99.90
17364;DHT22;8799;43.594;13.526;2023-03-12T02:11:04;19.10;99.90
17364;DHT22;8799;43.594;13.526;2023-03-12T02:13:33;19.10;99.90
17364;DHT22;8799;43.594;13.526;2023-03-12T02:16:00;19.10;99.90
17364;DHT22;8799;43.594;13.526;2023-03-12T02:18:29;19.10;99.90
17364;DHT22;8799;43.594;13.526;2023-03-12T02:21:03;19.10;99.90
17364;DHT22;8799;43.594;13.526;2023-03-12T02:23:37;19.10;99.90
17364;DHT22;8799;43.594;13.526;2023-03-12T02:26:09;19.10;99.90
17364;DHT22;8799;43.594;13.526;2023-03-12T02:28:39;19.10;99.90
17364;DHT22;8799;43.594;13.526;2023-03-12T02:31:12;19.10;99.90
17364;DHT22;8799;43.594;13.526;2023-03-12T02:33:40;19.00;99.90
17364;DHT22;8799;43.594;13.526;2023-03-12T02:36:08;19.00;99.90
17364;DHT22;8799;43.594;13.526;2023-03-12T02:38:39;19.10;99.90
17364;DHT22;8799;43.594;13.526;2023-03-12T02:41:14;19.10;99.90
17364;DHT22;8799;43.594;13.526;2023-03-12T02:43:46;19.10;99.90
17364;DHT22;8799;43.594;13.526;2023-03-12T02:46:16;19.10;99.90
17364;DHT22;8799;43.594;13.526;2023-03-12T02:48:44;19.10;99.90
17364;DHT22;8799;43.594;13.526;2023-03-12T02:51:12;19.10;99.90
17364;DHT22;8799;43.594;13.526;2023-03-12T02:53:40;19.10;99.90
17364;DHT22;8799;43.594;13.526;2023-03-12T02:56:08;19.10;99.90
17364;DHT22;8799;43.594;13.526;2023-03-12T02:58:37;19.10;99.90
17364;DHT22;8799;43.594;13.526;2023-03-12T03:01:06;19.10;99.90
17364;DHT22;8799;43.594;13.526;2023-03-12T03:03:34;19.10;99.90
17364;DHT22;8799;43.594;13.526;2023-03-12T03:06:03;19.10;99.90
17364;DHT22;8799;43.594;13.526;2023-03-12T03:08:31;19.10;99.90
17364;DHT22;8799;43.594;13.526;2023-03-12T03:10:59;19.10;99.90
17364;DHT22;8799;43.594;13.526;2023-03-12T03:13:27;19.10;99.90
17364;DHT22;8799;43.594;13.526;2023-03-12T03:15:58;19.10;99.90
17364;DHT22;8799;43.594;13.526;2023-03-12T03:18:27;19.10;99.90
17364;DHT22;8799;43.594;13.526;2023-03-12T03:20:55;19.10;99.90
17364;DHT22;8799;43.594;13.526;2023-03-12T03:23:24;19.10;99.90
17364;DHT22;8799;43.594;13.526;2023-03-12T03:25:52;19.10;99.90
17364;DHT22;8799;43.594;13.526;2023-03-12T03:28:21;19.10;99.90
17364;DHT22;8799;43.594;13.526;2023-03-12T03:30:52;19.10;99.90
17364;DHT22;8799;43.594;13.526;2023-03-12T03:33:22;19.10;99.90
17364;DHT22;8799;43.594;13.526;2023-03-12T03:35:51;19.10;99.90
17364;DHT22;8799;43.594;13.526;2023-03-12T03:38:20;19.10;99.90
17364;DHT22;8799;43.594;13.526;2023-03-12T03:40:48;19.10;99.90
17364;DHT22;8799;43.594;13.526;2023-03-12T03:43:17;19.10;99.90
17364;DHT22;8799;43.594;13.526;2023-03-12T03:45:45;19.10;99.90
17364;DHT22;8799;43.594;13.526;2023-03-12T03:48:14;19.10;99.90
17364;DHT22;8799;43.594;13.526;2023-03-12T03:50:44;19.10;99.90
17364;DHT22;8799;43.594;13.526;2023-03-12T03:53:12;19.10;99.90
17364;DHT22;8799;43.594;13.526;2023-03-12T03:55:40;19.10;99.90
17364;DHT22;8799;43.594;13.526;2023-03-12T03:58:08;19.10;99.90
17364;DHT22;8799;43.594;13.526;2023-03-12T04:00:36;19.10;99.90
17364;DHT22;8799;43.594;13.526;2023-03-12T04:03:04;19.10;99.90
17364;DHT22;8799;43.594;13.526;2023-03-12T04:05:32;19.10;99.90
17364;DHT22;8799;43.594;13.526;2023-03-12T04:08:03;19.10;99.90
17364;DHT22;8799;43.594;13.526;2023-03-12T04:10:31;19.10;99.90
17364;DHT22;8799;43.594;13.526;2023-03-12T04:12:59;19.10;99.90
17364;DHT22;8799;43.594;13.526;2023-03-12T04:15:28;19.10;99.90
17364;DHT22;8799;43.594;13.526;2023-03-12T04:17:55;19.10;99.90
17364;DHT22;8799;43.594;13.526;2023-03-12T04:20:24;19.10;99.90
17364;DHT22;8799;43.594;13.526;2023-03-12T04:22:52;19.10;99.90
17364;DHT22;8799;43.594;13.526;2023-03-12T04:25:22;19.00;99.90
17364;DHT22;8799;43.594;13.526;2023-03-12T04:27:49;19.10;99.90
17364;DHT22;8799;43.594;13.526;2023-03-12T04:30:17;19.10;99.90
17364;DHT22;8799;43.594;13.526;2023-03-12T04:32:45;19.10;99.90
17364;DHT22;8799;43.594;13.526;2023-03-12T04:35:14;19.00;99.90
17364;DHT22;8799;43.594;13.526;2023-03-12T04:37:42;19.10;99.90
17364;DHT22;8799;43.594;13.526;2023-03-12T04:40:11;19.10;99.90
17364;DHT22;8799;43.594;13.526;2023-03-12T04:42:41;19.00;99.90
17364;DHT22;8799;43.594;13.526;2023-03-12T04:45:10;19.00;99.90
17364;DHT22;8799;43.594;13.526;2023-03-12T04:47:38;19.00;99.90
17364;DHT22;8799;43.594;13.526;2023-03-12T04:50:06;19.10;99.90
17364;DHT22;8799;43.594;13.526;2023-03-12T04:52:35;19.00;99.90
17364;DHT22;8799;43.594;13.526;2023-03-12T04:55:03;19.10;99.90
17364;DHT22;8799;43.594;13.526;2023-03-12T04:57:31;19.00;99.90
17364;DHT22;8799;43.594;13.526;2023-03-12T05:00:02;19.00;99.90
17364;DHT22;8799;43.594;13.526;2023-03-12T05:02:35;19.10;99.90
17364;DHT22;8799;43.594;13.526;2023-03-12T05:05:04;19.00;99.90
17364;DHT22;8799;43.594;13.526;2023-03-12T05:07:32;19.10;99.90
17364;DHT22;8799;43.594;13.526;2023-03-12T05:10:00;19.10;99.90
17364;DHT22;8799;43.594;13.526;2023-03-12T05:12:29;19.10;99.90
17364;DHT22;8799;43.594;13.526;2023-03-12T05:14:57;19.10;99.90
17364;DHT22;8799;43.594;13.526;2023-03-12T05:17:26;19.10;99.90
17364;DHT22;8799;43.594;13.526;2023-03-12T05:19:55;19.10;99.90
17364;DHT22;8799;43.594;13.526;2023-03-12T05:22:24;19.00;99.90
17364;DHT22;8799;43.594;13.526;2023-03-12T05:24:52;19.10;99.90
17364;DHT22;8799;43.594;13.526;2023-03-12T05:27:20;19.10;99.90
17364;DHT22;8799;43.594;13.526;2023-03-12T05:29:50;19.00;99.90
17364;DHT22;8799;43.594;13.526;2023-03-12T05:32:20;19.10;99.90
17364;DHT22;8799;43.594;13.526;2023-03-12T05:34:49;19.10;99.90
17364;DHT22;8799;43.594;13.526;2023-03-12T05:37:21;19.00;99.90
17364;DHT22;8799;43.594;13.526;2023-03-12T05:39:52;19.00;99.90
17364;DHT22;8799;43.594;13.526;2023-03-12T05:42:21;19.00;99.90
17364;DHT22;8799;43.594;13.526;2023-03-12T05:44:50;19.00;99.90
17364;DHT22;8799;43.594;13.526;2023-03-12T05:47:18;19.10;99.90
17364;DHT22;8799;43.594;13.526;2023-03-12T05:49:46;19.00;99.90
17364;DHT22;8799;43.594;13.526;2023-03-12T05:52:17;19.00;99.90
17364;DHT22;8799;43.594;13.526;2023-03-12T05:54:44;19.00;99.90
17364;DHT22;8799;43.594;13.526;2023-03-12T05:57:12;19.00;99.90
17364;DHT22;8799;43.594;13.526;2023-03-12T05:59:40;19.00;99.90
17364;DHT22;8799;43.594;13.526;2023-03-12T06:02:08;19.00;99.90
17364;DHT22;8799;43.594;13.526;2023-03-12T06:04:36;19.00;99.90
17364;DHT22;8799;43.594;13.526;2023-03-12T06:07:04;19.00;99.90
17364;DHT22;8799;43.594;13.526;2023-03-12T06:09:34;19.00;99.90
17364;DHT22;8799;43.594;13.526;2023-03-12T06:12:03;19.00;99.90
17364;DHT22;8799;43.594;13.526;2023-03-12T06:14:31;19.00;99.90
17364;DHT22;8799;43.594;13.526;2023-03-12T06:16:58;19.00;99.90
17364;DHT22;8799;43.594;13.526;2023-03-12T06:19:27;19.00;99.90
17364;DHT22;8799;43.594;13.526;2023-03-12T06:21:55;19.00;99.90
17364;DHT22;8799;43.594;13.526;2023-03-12T06:24:23;19.00;99.90
17364;DHT22;8799;43.594;13.526;2023-03-12T06:26:52;19.00;99.90
17364;DHT22;8799;43.594;13.526;2023-03-12T06:29:20;19.00;99.90
17364;DHT22;8799;43.594;13.526;2023-03-12T06:31:48;19.00;99.90
17364;DHT22;8799;43.594;13.526;2023-03-12T06:34:17;19.00;99.90
17364;DHT22;8799;43.594;13.526;2023-03-12T06:36:44;19.00;99.90
17364;DHT22;8799;43.594;13.526;2023-03-12T06:39:12;19.00;99.90
17364;DHT22;8799;43.594;13.526;2023-03-12T06:41:41;19.00;99.90
17364;DHT22;8799;43.594;13.526;2023-03-12T06:44:10;19.00;99.90
17364;DHT22;8799;43.594;13.526;2023-03-12T06:46:38;19.00;99.90
17364;DHT22;8799;43.594;13.526;2023-03-12T06:49:06;19.00;99.90
17364;DHT22;8799;43.594;13.526;2023-03-12T06:51:35;19.00;99.90
17364;DHT22;8799;43.594;13.526;2023-03-12T06:54:04;19.00;99.90
17364;DHT22;8799;43.594;13.526;2023-03-12T06:56:33;19.00;99.90
17364;DHT22;8799;43.594;13.526;2023-03-12T06:59:01;19.00;99.90
17364;DHT22;8799;43.594;13.526;2023-03-12T07:01:30;19.00;99.90
17364;DHT22;8799;43.594;13.526;2023-03-12T07:03:59;19.00;99.90
17364;DHT22;8799;43.594;13.526;2023-03-12T07:06:26;19.00;99.90
17364;DHT22;8799;43.594;13.526;2023-03-12T07:08:54;19.00;99.90
17364;DHT22;8799;43.594;13.526;2023-03-12T07:11:22;19.00;99.90
17364;DHT22;8799;43.594;13.526;2023-03-12T07:13:50;19.00;99.90
17364;DHT22;8799;43.594;13.526;2023-03-12T07:16:17;19.00;99.90
17364;DHT22;8799;43.594;13.526;2023-03-12T07:18:47;19.00;99.90
17364;DHT22;8799;43.594;13.526;2023-03-12T07:21:16;19.00;99.90
17364;DHT22;8799;43.594;13.526;2023-03-12T07:23:47;19.00;99.90
17364;DHT22;8799;43.594;13.526;2023-03-12T07:26:15;19.00;99.90
17364;DHT22;8799;43.594;13.526;2023-03-12T07:28:43;19.00;99.90
17364;DHT22;8799;43.594;13.526;2023-03-12T07:31:11;19.00;99.90
17364;DHT22;8799;43.594;13.526;2023-03-12T07:33:39;19.00;99.90
17364;DHT22;8799;43.594;13.526;2023-03-12T07:36:09;19.00;99.90
17364;DHT22;8799;43.594;13.526;2023-03-12T07:38:37;19.00;99.90
17364;DHT22;8799;43.594;13.526;2023-03-12T07:41:05;19.00;99.90
17364;DHT22;8799;43.594;13.526;2023-03-12T07:43:33;18.90;99.90
17364;DHT22;8799;43.594;13.526;2023-03-12T07:46:02;19.00;99.90
17364;DHT22;8799;43.594;13.526;2023-03-12T07:48:31;18.90;99.90
17364;DHT22;8799;43.594;13.526;2023-03-12T07:50:59;18.90;99.90
17364;DHT22;8799;43.594;13.526;2023-03-12T07:53:29;18.90;99.90
17364;DHT22;8799;43.594;13.526;2023-03-12T07:55:57;19.00;99.90
17364;DHT22;8799;43.594;13.526;2023-03-12T07:58:25;19.00;99.90
17364;DHT22;8799;43.594;13.526;2023-03-12T08:00:54;18.90;99.90
17364;DHT22;8799;43.594;13.526;2023-03-12T08:03:23;18.90;99.90
17364;DHT22;8799;43.594;13.526;2023-03-12T08:05:58;18.90;99.90
17364;DHT22;8799;43.594;13.526;2023-03-12T08:08:27;19.00;99.90
17364;DHT22;8799;43.594;13.526;2023-03-12T08:10:57;19.00;99.90
17364;DHT22;8799;43.594;13.526;2023-03-12T08:13:25;18.90;99.90
17364;DHT22;8799;43.594;13.526;2023-03-12T08:15:54;18.90;99.90
17364;DHT22;8799;43.594;13.526;2023-03-12T08:18:22;19.00;99.90
17364;DHT22;8799;43.594;13.526;2023-03-12T08:20:52;18.90;99.90
17364;DHT22;8799;43.594;13.526;2023-03-12T08:23:21;19.00;99.90
17364;DHT22;8799;43.594;13.526;2023-03-12T08:25:50;19.00;99.90
17364;DHT22;8799;43.594;13.526;2023-03-12T08:28:21;18.90;99.90
17364;DHT22;8799;43.594;13.526;2023-03-12T08:30:50;19.00;99.90
17364;DHT22;8799;43.594;13.526;2023-03-12T08:33:19;19.00;99.90
17364;DHT22;8799;43.594;13.526;2023-03-12T08:35:48;19.00;99.90
17364;DHT22;8799;43.594;13.526;2023-03-12T08:38:16;19.00;99.90
17364;DHT22;8799;43.594;13.526;2023-03-12T08:40:44;19.00;99.90
17364;DHT22;8799;43.594;13.526;2023-03-12T08:43:12;19.00;99.90
17364;DHT22;8799;43.594;13.526;2023-03-12T08:45:41;19.00;99.90
17364;DHT22;8799;43.594;13.526;2023-03-12T08:48:09;19.00;99.90
17364;DHT22;8799;43.594;13.526;2023-03-12T08:50:38;18.90;99.90
17364;DHT22;8799;43.594;13.526;2023-03-12T08:53:06;18.90;99.90
17364;DHT22;8799;43.594;13.526;2023-03-12T08:55:35;19.00;99.90
17364;DHT22;8799;43.594;13.526;2023-03-12T08:58:03;19.00;99.90
17364;DHT22;8799;43.594;13.526;2023-03-12T09:00:31;18.90;99.90
17364;DHT22;8799;43.594;13.526;2023-03-12T09:03:01;19.00;99.90
17364;DHT22;8799;43.594;13.526;2023-03-12T09:05:29;18.90;99.90
17364;DHT22;8799;43.594;13.526;2023-03-12T09:07:57;18.90;99.90
17364;DHT22;8799;43.594;13.526;2023-03-12T09:10:28;18.90;99.90
17364;DHT22;8799;43.594;13.526;2023-03-12T09:12:56;18.90;99.90
17364;DHT22;8799;43.594;13.526;2023-03-12T09:15:24;18.90;99.90
17364;DHT22;8799;43.594;13.526;2023-03-12T09:17:52;18.90;99.90
17364;DHT22;8799;43.594;13.526;2023-03-12T09:20:22;18.90;99.90
17364;DHT22;8799;43.594;13.526;2023-03-12T09:22:50;18.90;99.90
17364;DHT22;8799;43.594;13.526;2023-03-12T09:25:18;18.90;99.90
17364;DHT22;8799;43.594;13.526;2023-03-12T09:27:48;18.90;99.90
17364;DHT22;8799;43.594;13.526;2023-03-12T09:30:17;18.90;99.90
17364;DHT22;8799;43.594;13.526;2023-03-12T09:32:45;18.90;99.90
17364;DHT22;8799;43.594;13.526;2023-03-12T09:35:14;18.90;99.90
17364;DHT22;8799;43.594;13.526;2023-03-12T09:37:47;18.90;99.90
17364;DHT22;8799;43.594;13.526;2023-03-12T09:40:16;18.90;99.90
17364;DHT22;8799;43.594;13.526;2023-03-12T09:42:48;18.90;99.90
17364;DHT22;8799;43.594;13.526;2023-03-12T09:45:20;18.90;99.90
17364;DHT22;8799;43.594;13.526;2023-03-12T09:47:50;18.90;99.90
17364;DHT22;8799;43.594;13.526;2023-03-12T09:50:25;18.90;99.90
17364;DHT22;8799;43.594;13.526;2023-03-12T09:52:59;18.90;99.90
17364;DHT22;8799;43.594;13.526;2023-03-12T09:55:34;18.80;99.90
17364;DHT22;8799;43.594;13.526;2023-03-12T09:58:03;18.80;98.80
17364;DHT22;8799;43.594;13.526;2023-03-12T10:00:33;18.80;99.20
17364;DHT22;8799;43.594;13.526;2023-03-12T10:03:09;18.70;98.90
17364;DHT22;8799;43.594;13.526;2023-03-12T10:05:45;18.80;98.90
17364;DHT22;8799;43.594;13.526;2023-03-12T10:08:24;18.80;99.00
17364;DHT22;8799;43.594;13.526;2023-03-12T10:11:01;18.80;98.90
17364;DHT22;8799;43.594;13.526;2023-03-12T10:13:45;18.80;98.90
17364;DHT22;8799;43.594;13.526;2023-03-12T10:16:28;18.80;98.70
17364;DHT22;8799;43.594;13.526;2023-03-12T10:19:09;18.80;98.60
17364;DHT22;8799;43.594;13.526;2023-03-12T10:21:45;18.90;98.70
17364;DHT22;8799;43.594;13.526;2023-03-12T10:24:34;18.80;98.70
17364;DHT22;8799;43.594;13.526;2023-03-12T10:27:10;18.90;99.00
17364;DHT22;8799;43.594;13.526;2023-03-12T10:29:41;18.90;99.00
17364;DHT22;8799;43.594;13.526;2023-03-12T10:32:14;18.90;99.10
17364;DHT22;8799;43.594;13.526;2023-03-12T10:34:46;18.80;99.00
17364;DHT22;8799;43.594;13.526;2023-03-12T10:37:19;18.90;99.20
17364;DHT22;8799;43.594;13.526;2023-03-12T10:39:50;18.90;99.10
17364;DHT22;8799;43.594;13.526;2023-03-12T10:42:21;18.90;99.00
17364;DHT22;8799;43.594;13.526;2023-03-12T10:47:30;18.90;98.70
17364;DHT22;8799;43.594;13.526;2023-03-12T10:50:13;18.90;98.60
17364;DHT22;8799;43.594;13.526;2023-03-12T10:52:41;18.90;98.50
17364;DHT22;8799;43.594;13.526;2023-03-12T10:55:19;18.90;98.40
17364;DHT22;8799;43.594;13.526;2023-03-12T10:57:47;18.90;98.30
17364;DHT22;8799;43.594;13.526;2023-03-12T11:00:20;18.90;98.40
17364;DHT22;8799;43.594;13.526;2023-03-12T11:02:56;18.80;98.40
17364;DHT22;8799;43.594;13.526;2023-03-12T11:05:25;18.80;98.20
17364;DHT22;8799;43.594;13.526;2023-03-12T11:07:55;18.80;98.20
17364;DHT22;8799;43.594;13.526;2023-03-12T11:10:38;18.80;98.30
17364;DHT22;8799;43.594;13.526;2023-03-12T11:13:28;18.80;98.30
17364;DHT22;8799;43.594;13.526;2023-03-12T11:16:02;18.80;98.30
17364;DHT22;8799;43.594;13.526;2023-03-12T11:19:05;18.80;98.00
17364;DHT22;8799;43.594;13.526;2023-03-12T11:21:38;19.00;98.00
17364;DHT22;8799;43.594;13.526;2023-03-12T11:24:10;18.80;97.90
17364;DHT22;8799;43.594;13.526;2023-03-12T11:26:46;18.80;97.40
17364;DHT22;8799;43.594;13.526;2023-03-12T11:29:25;18.80;97.40
17364;DHT22;8799;43.594;13.526;2023-03-12T11:32:00;18.90;97.40
17364;DHT22;8799;43.594;13.526;2023-03-12T11:34:30;18.90;97.40
17364;DHT22;8799;43.594;13.526;2023-03-12T11:37:05;18.90;97.40
17364;DHT22;8799;43.594;13.526;2023-03-12T11:39:45;18.90;97.40
17364;DHT22;8799;43.594;13.526;2023-03-12T11:42:23;18.90;97.40
17364;DHT22;8799;43.594;13.526;2023-03-12T11:45:00;18.90;97.30
17364;DHT22;8799;43.594;13.526;2023-03-12T11:47:42;18.90;97.20
17364;DHT22;8799;43.594;13.526;2023-03-12T11:50:21;18.90;97.20
17364;DHT22;8799;43.594;13.526;2023-03-12T11:53:11;18.90;97.20
17364;DHT22;8799;43.594;13.526;2023-03-12T11:55:53;18.90;97.30
17364;DHT22;8799;43.594;13.526;2023-03-12T11:58:39;18.90;97.10
17364;DHT22;8799;43.594;13.526;2023-03-12T12:01:16;18.90;97.10
17364;DHT22;8799;43.594;13.526;2023-03-12T12:04:19;18.90;96.90
17364;DHT22;8799;43.594;13.526;2023-03-12T12:07:01;18.90;96.80
17364;DHT22;8799;43.594;13.526;2023-03-12T12:09:37;18.90;96.50
17364;DHT22;8799;43.594;13.526;2023-03-12T12:12:24;18.90;96.40
17364;DHT22;8799;43.594;13.526;2023-03-12T12:15:03;18.90;96.50
17364;DHT22;8799;43.594;13.526;2023-03-12T12:17:46;18.90;96.70
17364;DHT22;8799;43.594;13.526;2023-03-12T12:20:20;18.90;96.80
17364;DHT22;8799;43.594;13.526;2023-03-12T12:22:58;18.90;96.90
17364;DHT22;8799;43.594;13.526;2023-03-12T12:25:37;18.90;96.70
17364;DHT22;8799;43.594;13.526;2023-03-12T12:28:27;19.00;96.40
17364;DHT22;8799;43.594;13.526;2023-03-12T12:31:07;19.00;96.60
17364;DHT22;8799;43.594;13.526;2023-03-12T12:33:47;19.00;96.60
17364;DHT22;8799;43.594;13.526;2023-03-12T12:36:17;19.00;96.50
17364;DHT22;8799;43.594;13.526;2023-03-12T12:38:48;19.00;96.60
17364;DHT22;8799;43.594;13.526;2023-03-12T12:41:20;19.00;96.80
17364;DHT22;8799;43.594;13.526;2023-03-12T12:43:54;19.00;96.90
17364;DHT22;8799;43.594;13.526;2023-03-12T12:46:29;19.00;96.90
17364;DHT22;8799;43.594;13.526;2023-03-12T12:49:03;19.00;97.00
17364;DHT22;8799;43.594;13.526;2023-03-12T12:51:37;19.00;97.10
17364;DHT22;8799;43.594;13.526;2023-03-12T12:54:08;19.00;97.20
17364;DHT22;8799;43.594;13.526;2023-03-12T12:56:46;19.00;97.20
17364;DHT22;8799;43.594;13.526;2023-03-12T12:59:29;19.00;97.20
17364;DHT22;8799;43.594;13.526;2023-03-12T13:02:02;19.00;97.30
17364;DHT22;8799;43.594;13.526;2023-03-12T13:04:34;19.00;97.30
17364;DHT22;8799;43.594;13.526;2023-03-12T13:07:31;19.00;97.30
17364;DHT22;8799;43.594;13.526;2023-03-12T13:10:06;19.00;97.40
17364;DHT22;8799;43.594;13.526;2023-03-12T13:12:41;19.00;97.50
17364;DHT22;8799;43.594;13.526;2023-03-12T13:15:34;19.00;97.60
17364;DHT22;8799;43.594;13.526;2023-03-12T13:18:20;19.00;97.60
17364;DHT22;8799;43.594;13.526;2023-03-12T13:21:18;19.00;97.60
17364;DHT22;8799;43.594;13.526;2023-03-12T13:23:54;19.00;97.70
17364;DHT22;8799;43.594;13.526;2023-03-12T13:26:28;19.00;97.70
17364;DHT22;8799;43.594;13.526;2023-03-12T13:29:11;19.00;97.80
17364;DHT22;8799;43.594;13.526;2023-03-12T13:31:41;19.00;97.80
17364;DHT22;8799;43.594;13.526;2023-03-12T13:37:28;19.00;97.90
17364;DHT22;8799;43.594;13.526;2023-03-12T13:40:00;19.00;98.00
17364;DHT22;8799;43.594;13.526;2023-03-12T13:42:39;19.00;98.00
17364;DHT22;8799;43.594;13.526;2023-03-12T13:45:26;19.00;98.10
17364;DHT22;8799;43.594;13.526;2023-03-12T13:47:58;19.00;98.20
17364;DHT22;8799;43.594;13.526;2023-03-12T13:50:28;19.00;98.20
17364;DHT22;8799;43.594;13.526;2023-03-12T13:53:03;19.00;98.20
17364;DHT22;8799;43.594;13.526;2023-03-12T13:55:34;19.00;98.40
17364;DHT22;8799;43.594;13.526;2023-03-12T13:58:08;19.00;98.40
17364;DHT22;8799;43.594;13.526;2023-03-12T14:00:38;19.00;98.40
17364;DHT22;8799;43.594;13.526;2023-03-12T14:03:13;19.00;98.40
17364;DHT22;8799;43.594;13.526;2023-03-12T14:05:47;19.00;98.40
17364;DHT22;8799;43.594;13.526;2023-03-12T14:08:45;19.00;98.40
17364;DHT22;8799;43.594;13.526;2023-03-12T14:14:23;19.00;95.10
17364;DHT22;8799;43.594;13.526;2023-03-12T14:16:57;19.00;90.60
17364;DHT22;8799;43.594;13.526;2023-03-12T14:19:28;18.90;89.70
17364;DHT22;8799;43.594;13.526;2023-03-12T14:22:01;18.90;85.50
17364;DHT22;8799;43.594;13.526;2023-03-12T14:24:34;18.90;85.40
17364;DHT22;8799;43.594;13.526;2023-03-12T14:27:05;18.80;85.30
17364;DHT22;8799;43.594;13.526;2023-03-12T14:29:35;18.80;84.80
17364;DHT22;8799;43.594;13.526;2023-03-12T14:32:05;18.80;84.20
17364;DHT22;8799;43.594;13.526;2023-03-12T14:34:41;18.80;84.20
17364;DHT22;8799;43.594;13.526;2023-03-12T14:37:13;18.80;83.90
17364;DHT22;8799;43.594;13.526;2023-03-12T14:39:48;18.80;84.50
17364;DHT22;8799;43.594;13.526;2023-03-12T14:42:21;18.80;84.40
17364;DHT22;8799;43.594;13.526;2023-03-12T14:44:57;18.80;84.00
17364;DHT22;8799;43.594;13.526;2023-03-12T14:47:25;18.80;83.00
17364;DHT22;8799;43.594;13.526;2023-03-12T14:49:56;18.70;82.60
17364;DHT22;8799;43.594;13.526;2023-03-12T14:52:25;18.70;81.50
17364;DHT22;8799;43.594;13.526;2023-03-12T14:54:57;18.70;80.80
17364;DHT22;8799;43.594;13.526;2023-03-12T14:57:26;18.70;80.40
17364;DHT22;8799;43.594;13.526;2023-03-12T14:59:56;18.70;82.10
17364;DHT22;8799;43.594;13.526;2023-03-12T15:02:24;18.70;82.70
17364;DHT22;8799;43.594;13.526;2023-03-12T15:04:55;18.70;81.80
17364;DHT22;8799;43.594;13.526;2023-03-12T15:07:28;18.70;81.00
17364;DHT22;8799;43.594;13.526;2023-03-12T15:09:59;18.70;81.10
17364;DHT22;8799;43.594;13.526;2023-03-12T15:12:31;18.70;81.30
17364;DHT22;8799;43.594;13.526;2023-03-12T15:15:04;18.70;80.90
17364;DHT22;8799;43.594;13.526;2023-03-12T15:17:33;18.70;81.20
17364;DHT22;8799;43.594;13.526;2023-03-12T15:20:03;18.70;81.50
17364;DHT22;8799;43.594;13.526;2023-03-12T15:22:34;18.60;80.50
17364;DHT22;8799;43.594;13.526;2023-03-12T15:25:19;18.60;79.80
17364;DHT22;8799;43.594;13.526;2023-03-12T15:28:00;18.60;78.80
17364;DHT22;8799;43.594;13.526;2023-03-12T15:30:29;18.60;78.50
17364;DHT22;8799;43.594;13.526;2023-03-12T15:33:08;18.60;78.00
17364;DHT22;8799;43.594;13.526;2023-03-12T15:35:39;18.50;77.80
17364;DHT22;8799;43.594;13.526;2023-03-12T15:38:14;18.50;77.50
17364;DHT22;8799;43.594;13.526;2023-03-12T15:40:49;18.50;77.10
17364;DHT22;8799;43.594;13.526;2023-03-12T15:43:20;18.50;77.10
17364;DHT22;8799;43.594;13.526;2023-03-12T15:45:56;18.40;76.20
17364;DHT22;8799;43.594;13.526;2023-03-12T15:48:27;18.40;76.20
17364;DHT22;8799;43.594;13.526;2023-03-12T15:51:00;18.40;75.70
17364;DHT22;8799;43.594;13.526;2023-03-12T15:53:31;18.40;75.30
17364;DHT22;8799;43.594;13.526;2023-03-12T15:56:19;18.30;74.80
17364;DHT22;8799;43.594;13.526;2023-03-12T15:58:58;18.30;74.60
17364;DHT22;8799;43.594;13.526;2023-03-12T16:01:26;18.30;74.40
17364;DHT22;8799;43.594;13.526;2023-03-12T16:03:58;18.20;74.30
17364;DHT22;8799;43.594;13.526;2023-03-12T16:06:26;18.20;73.60